Time;durP1;ratioP1;P1;durP2;ratioP2;P2;SDS_P1;SDS_P2;PMS_P1;PMS_P2;Temp;Humidity;BMP_temperature;BMP_pressure;BME280_temperature;BME280_humidity;BME280_pressure;Samples;Min_cycle;Max_cycle;Signal;HPM_P1;HPM_P2
2022/07/24 00:01:28;;;;;;;5.03;4.13;;;;;;;;;;5117381;27;20185;-48
2022/07/24 00:03:54;;;;;;;6.40;3.72;;;;;;;;;;5120229;27;20078;-49
2022/07/24 00:06:19;;;;;;;6.13;4.50;;;;;;;;;;5120640;27;20517;-47
2022/07/24 00:08:44;;;;;;;7.45;4.80;;;;;;;;;;5118835;27;20455;-48
2022/07/24 00:11:10;;;;;;;4.68;3.70;;;;;;;;;;5118472;27;20520;-47
2022/07/24 00:13:35;;;;;;;4.45;3.55;;;;;;;;;;5124300;27;20055;-43
2022/07/24 00:16:00;;;;;;;35.03;9.05;;;;;;;;;;5116727;27;20051;-46
2022/07/24 00:18:26;;;;;;;5.28;3.97;;;;;;;;;;5118997;27;20039;-45
2022/07/24 00:20:51;;;;;;;5.93;4.53;;;;;;;;;;5119209;27;20058;-47
2022/07/24 00:23:16;;;;;;;6.53;4.25;;;;;;;;;;5122469;27;20078;-45
2022/07/24 00:25:42;;;;;;;4.60;4.20;;;;;;;;;;5120426;27;20034;-47
2022/07/24 00:28:07;;;;;;;4.82;4.40;;;;;;;;;;5123455;27;20126;-47
2022/07/24 00:30:32;;;;;;;14.40;5.28;;;;;;;;;;5121528;27;20498;-48
2022/07/24 00:32:58;;;;;;;5.22;4.43;;;;;;;;;;5121866;27;20039;-46
2022/07/24 00:35:23;;;;;;;4.70;4.25;;;;;;;;;;5120067;27;20094;-47
2022/07/24 00:37:49;;;;;;;5.40;3.75;;;;;;;;;;5121990;27;20099;-47
2022/07/24 00:40:15;;;;;;;5.47;3.92;;;;;;;;;;5117876;27;20042;-48
2022/07/24 00:42:41;;;;;;;9.90;5.82;;;;;;;;;;5117552;27;20090;-47
2022/07/24 00:45:07;;;;;;;62.65;11.05;;;;;;;;;;5118509;27;20122;-45
2022/07/24 00:47:32;;;;;;;5.47;3.78;;;;;;;;;;5117256;27;20019;-44
2022/07/24 00:49:59;;;;;;;5.38;4.00;;;;;;;;;;5115400;27;20039;-44
2022/07/24 00:52:25;;;;;;;5.45;4.25;;;;;;;;;;5114354;27;20051;-44
2022/07/24 00:54:50;;;;;;;4.75;3.40;;;;;;;;;;5116873;27;20052;-45
2022/07/24 00:57:15;;;;;;;5.28;4.45;;;;;;;;;;5115895;27;20035;-42
2022/07/24 00:59:41;;;;;;;4.88;4.38;;;;;;;;;;5115150;28;20494;-45
2022/07/24 01:02:06;;;;;;;5.40;3.70;;;;;;;;;;5114099;27;20558;-47
2022/07/24 01:04:31;;;;;;;5.10;3.42;;;;;;;;;;5118892;27;20062;-43
2022/07/24 01:06:58;;;;;;;7.68;4.40;;;;;;;;;;5113607;27;20453;-44
2022/07/24 01:09:23;;;;;;;4.80;3.42;;;;;;;;;;5114665;27;20629;-42
2022/07/24 01:11:49;;;;;;;4.68;3.50;;;;;;;;;;5115785;27;20151;-45
2022/07/24 01:14:15;;;;;;;6.82;4.25;;;;;;;;;;5116629;27;20078;-42
2022/07/24 01:16:40;;;;;;;5.40;4.20;;;;;;;;;;5115479;27;20395;-48
2022/07/24 01:19:05;;;;;;;4.63;4.18;;;;;;;;;;5113111;28;20044;-45
2022/07/24 01:21:31;;;;;;;4.97;3.85;;;;;;;;;;5114370;27;20032;-43
2022/07/24 01:23:56;;;;;;;14.45;4.35;;;;;;;;;;5115491;27;20634;-47
2022/07/24 01:26:21;;;;;;;7.32;3.83;;;;;;;;;;5114786;27;20051;-44
2022/07/24 01:28:47;;;;;;;4.10;3.42;;;;;;;;;;5087108;28;20047;-46
2022/07/24 01:31:12;;;;;;;3.80;3.35;;;;;;;;;;5096052;28;20115;-47
2022/07/24 01:33:37;;;;;;;8.43;4.50;;;;;;;;;;5114983;27;20101;-43
2022/07/24 01:36:03;;;;;;;3.90;3.58;;;;;;;;;;5116021;27;20036;-44
2022/07/24 01:38:28;;;;;;;4.68;4.18;;;;;;;;;;5113768;27;20066;-45
2022/07/24 01:40:53;;;;;;;6.75;4.45;;;;;;;;;;5118550;27;20076;-43
2022/07/24 01:43:19;;;;;;;5.30;3.78;;;;;;;;;;5113471;27;20039;-45
2022/07/24 01:45:44;;;;;;;5.75;4.35;;;;;;;;;;5115196;27;20108;-46
2022/07/24 01:48:10;;;;;;;7.53;4.35;;;;;;;;;;5116307;27;20067;-46
2022/07/24 01:50:35;;;;;;;9.40;4.18;;;;;;;;;;5114037;27;20419;-47
2022/07/24 01:53:01;;;;;;;4.28;3.88;;;;;;;;;;5113230;27;20048;-44
2022/07/24 01:55:27;;;;;;;3.88;3.53;;;;;;;;;;5114892;27;20046;-43
2022/07/24 01:57:52;;;;;;;12.93;4.95;;;;;;;;;;5110140;28;20047;-45
2022/07/24 02:00:18;;;;;;;7.10;3.83;;;;;;;;;;5118371;27;20049;-43
2022/07/24 02:02:43;;;;;;;5.30;4.15;;;;;;;;;;5113098;27;20059;-43
2022/07/24 02:05:09;;;;;;;4.40;3.90;;;;;;;;;;5116024;27;20071;-45
2022/07/24 02:07:35;;;;;;;4.78;3.70;;;;;;;;;;5097579;27;20062;-44
2022/07/24 02:10:00;;;;;;;5.07;4.32;;;;;;;;;;5117147;27;20499;-48
2022/07/24 02:12:26;;;;;;;11.88;4.80;;;;;;;;;;5114086;27;20044;-46
2022/07/24 02:14:51;;;;;;;5.38;4.75;;;;;;;;;;5117438;27;20605;-47
2022/07/24 02:17:16;;;;;;;4.45;4.05;;;;;;;;;;5116708;28;21023;-48
2022/07/24 02:19:42;;;;;;;4.32;3.92;;;;;;;;;;5118531;27;20359;-46
2022/07/24 02:22:07;;;;;;;3.85;3.45;;;;;;;;;;5111925;27;20565;-46
2022/07/24 02:24:32;;;;;;;5.38;3.92;;;;;;;;;;5115421;28;20058;-49
2022/07/24 02:26:58;;;;;;;6.55;4.53;;;;;;;;;;5113683;28;20051;-43
2022/07/24 02:29:23;;;;;;;6.90;4.28;;;;;;;;;;5113960;27;20035;-42
2022/07/24 02:31:48;;;;;;;3.95;3.55;;;;;;;;;;5118992;27;20532;-47
2022/07/24 02:34:14;;;;;;;7.80;4.00;;;;;;;;;;5113435;27;20105;-42
2022/07/24 02:36:40;;;;;;;4.72;4.32;;;;;;;;;;5115024;27;20039;-43
2022/07/24 02:39:14;;;;;;;4.43;3.33;;;;;;;;;;5115461;27;20391;-45
2022/07/24 02:41:39;;;;;;;7.93;4.35;;;;;;;;;;5115009;28;20039;-46
2022/07/24 02:44:04;;;;;;;4.03;3.63;;;;;;;;;;5117349;27;20095;-43
2022/07/24 02:46:30;;;;;;;4.85;4.35;;;;;;;;;;5108762;27;20078;-44
2022/07/24 02:48:55;;;;;;;11.20;4.45;;;;;;;;;;5114941;27;20039;-45
2022/07/24 02:51:20;;;;;;;7.25;4.15;;;;;;;;;;5115370;27;20058;-46
2022/07/24 02:53:46;;;;;;;6.22;4.32;;;;;;;;;;5116140;27;20035;-44
2022/07/24 02:56:11;;;;;;;5.30;4.75;;;;;;;;;;5097045;28;20141;-43
2022/07/24 02:58:36;;;;;;;6.20;4.38;;;;;;;;;;5113387;27;20043;-44
2022/07/24 03:01:02;;;;;;;5.60;4.32;;;;;;;;;;5115934;27;20035;-45
2022/07/24 03:03:27;;;;;;;5.18;4.68;;;;;;;;;;5114635;27;20566;-44
2022/07/24 03:05:53;;;;;;;5.18;4.68;;;;;;;;;;5113464;28;20078;-45
2022/07/24 03:08:18;;;;;;;10.63;3.92;;;;;;;;;;5116742;27;20755;-44
2022/07/24 03:10:43;;;;;;;7.93;4.03;;;;;;;;;;5111769;27;20055;-42
2022/07/24 03:13:09;;;;;;;7.88;4.68;;;;;;;;;;5110972;27;20046;-44
2022/07/24 03:15:34;;;;;;;5.95;5.28;;;;;;;;;;5111329;27;20398;-43
2022/07/24 03:17:59;;;;;;;5.25;4.72;;;;;;;;;;5116962;27;20525;-46
2022/07/24 03:20:26;;;;;;;5.00;3.88;;;;;;;;;;5118002;27;20486;-44
2022/07/24 03:22:51;;;;;;;9.00;4.57;;;;;;;;;;5111807;28;20035;-45
2022/07/24 03:25:17;;;;;;;5.38;4.93;;;;;;;;;;5111684;27;20046;-46
2022/07/24 03:27:42;;;;;;;14.30;5.18;;;;;;;;;;5109380;28;20176;-42
2022/07/24 03:30:08;;;;;;;6.30;5.43;;;;;;;;;;5112003;28;20023;-46
2022/07/24 03:32:34;;;;;;;6.95;5.13;;;;;;;;;;5094089;28;20068;-45
2022/07/24 03:34:59;;;;;;;5.10;4.55;;;;;;;;;;5113991;28;20055;-45
2022/07/24 03:37:24;;;;;;;5.05;3.97;;;;;;;;;;5110431;27;20066;-45
2022/07/24 03:39:50;;;;;;;5.95;5.07;;;;;;;;;;5114239;27;20043;-46
2022/07/24 03:42:15;;;;;;;11.82;5.28;;;;;;;;;;5113516;27;20036;-48
2022/07/24 03:44:41;;;;;;;7.90;4.57;;;;;;;;;;5113334;28;20050;-47
2022/07/24 03:47:06;;;;;;;9.55;5.40;;;;;;;;;;5117323;27;20123;-47
2022/07/24 03:49:32;;;;;;;6.40;5.65;;;;;;;;;;5117475;27;20142;-45
2022/07/24 03:51:57;;;;;;;9.27;4.25;;;;;;;;;;5111390;27;20529;-45
2022/07/24 03:54:24;;;;;;;4.80;4.30;;;;;;;;;;5114100;27;20039;-45
2022/07/24 03:56:50;;;;;;;6.72;4.68;;;;;;;;;;5113168;27;20047;-48
2022/07/24 03:59:15;;;;;;;6.88;4.80;;;;;;;;;;5110818;28;20048;-44
2022/07/24 04:01:41;;;;;;;5.22;4.72;;;;;;;;;;5114548;27;20496;-48
2022/07/24 04:04:06;;;;;;;9.95;5.07;;;;;;;;;;5114528;27;20078;-49
2022/07/24 04:06:32;;;;;;;7.40;6.35;;;;;;;;;;5116422;27;20035;-47
2022/07/24 04:08:58;;;;;;;4.45;4.05;;;;;;;;;;5114008;27;20799;-48
2022/07/24 04:11:23;;;;;;;5.05;4.32;;;;;;;;;;5115287;27;20046;-46
2022/07/24 04:13:50;;;;;;;10.30;4.68;;;;;;;;;;5114396;27;20070;-46
2022/07/24 04:16:15;;;;;;;6.40;5.05;;;;;;;;;;5114309;27;20122;-45
2022/07/24 04:18:40;;;;;;;5.75;4.90;;;;;;;;;;5115157;27;20127;-45
2022/07/24 04:21:06;;;;;;;5.28;4.78;;;;;;;;;;5117136;27;20055;-47
2022/07/24 04:23:31;;;;;;;10.88;5.90;;;;;;;;;;5112818;27;20061;-43
2022/07/24 04:25:57;;;;;;;4.97;4.15;;;;;;;;;;5113529;27;20578;-45
2022/07/24 04:28:22;;;;;;;7.47;4.15;;;;;;;;;;5118097;28;20468;-46
2022/07/24 04:30:47;;;;;;;5.30;4.80;;;;;;;;;;5118642;27;20387;-48
2022/07/24 04:33:13;;;;;;;5.38;4.45;;;;;;;;;;5115824;27;20074;-45
2022/07/24 04:35:38;;;;;;;11.43;6.05;;;;;;;;;;5113852;27;20531;-45
2022/07/24 04:38:06;;;;;;;7.93;5.22;;;;;;;;;;5114009;27;20036;-44
2022/07/24 04:40:31;;;;;;;5.88;5.28;;;;;;;;;;5119149;27;20084;-44
2022/07/24 04:42:57;;;;;;;10.35;5.53;;;;;;;;;;5114544;27;20456;-44
2022/07/24 04:45:22;;;;;;;6.13;4.13;;;;;;;;;;5116275;27;20581;-45
2022/07/24 04:47:48;;;;;;;6.38;4.85;;;;;;;;;;5115328;27;20050;-46
2022/07/24 04:50:13;;;;;;;7.13;5.15;;;;;;;;;;5116438;27;20544;-45
2022/07/24 04:52:38;;;;;;;6.95;6.22;;;;;;;;;;5116682;27;20054;-46
2022/07/24 04:55:04;;;;;;;13.98;5.07;;;;;;;;;;5114313;27;20044;-44
2022/07/24 04:57:29;;;;;;;5.53;4.93;;;;;;;;;;5117387;27;20048;-44
2022/07/24 04:59:55;;;;;;;5.80;5.03;;;;;;;;;;5116487;28;20040;-47
2022/07/24 05:02:20;;;;;;;4.43;4.03;;;;;;;;;;5115598;28;20032;-45
2022/07/24 05:04:45;;;;;;;5.93;5.43;;;;;;;;;;5118400;27;20134;-47
2022/07/24 05:07:11;;;;;;;6.28;4.18;;;;;;;;;;5113318;27;20118;-46
2022/07/24 05:09:36;;;;;;;13.70;4.38;;;;;;;;;;5118628;27;20119;-43
2022/07/24 05:12:02;;;;;;;8.50;7.72;;;;;;;;;;5116565;27;20043;-48
2022/07/24 05:14:27;;;;;;;9.32;6.68;;;;;;;;;;5118960;27;20145;-47
2022/07/24 05:16:53;;;;;;;7.53;4.72;;;;;;;;;;5115444;27;20046;-44
2022/07/24 05:19:18;;;;;;;5.63;4.85;;;;;;;;;;5114989;27;20073;-45
2022/07/24 05:21:43;;;;;;;9.45;5.82;;;;;;;;;;5115252;27;20043;-43
2022/07/24 05:24:08;;;;;;;5.82;5.32;;;;;;;;;;5117274;27;20043;-44
2022/07/24 05:26:34;;;;;;;6.32;4.53;;;;;;;;;;5117684;27;20164;-45
2022/07/24 05:29:00;;;;;;;8.50;4.82;;;;;;;;;;5113014;27;20097;-46
2022/07/24 05:31:26;;;;;;;9.48;6.00;;;;;;;;;;5116150;27;20161;-44
2022/07/24 05:33:51;;;;;;;14.55;5.63;;;;;;;;;;5113601;27;20430;-47
2022/07/24 05:36:16;;;;;;;5.05;4.55;;;;;;;;;;5116492;27;20033;-46
2022/07/24 05:38:43;;;;;;;4.60;4.20;;;;;;;;;;5114184;27;20410;-45
2022/07/24 05:41:09;;;;;;;5.10;4.68;;;;;;;;;;5114570;27;20048;-48
2022/07/24 05:43:34;;;;;;;7.00;5.32;;;;;;;;;;5105687;27;20054;-43
2022/07/24 05:45:59;;;;;;;9.77;5.30;;;;;;;;;;5117714;27;20131;-45
2022/07/24 05:48:25;;;;;;;6.40;5.75;;;;;;;;;;5115984;27;20546;-47
2022/07/24 05:50:50;;;;;;;8.68;6.20;;;;;;;;;;5112899;27;20108;-47
2022/07/24 05:53:15;;;;;;;5.22;4.75;;;;;;;;;;5112192;27;20519;-45
2022/07/24 05:55:40;;;;;;;6.72;6.10;;;;;;;;;;5116379;27;20043;-44
2022/07/24 05:58:06;;;;;;;7.13;6.50;;;;;;;;;;5114718;27;20043;-46
2022/07/24 06:00:31;;;;;;;5.07;4.57;;;;;;;;;;5112870;27;20048;-43
2022/07/24 06:02:56;;;;;;;6.05;5.28;;;;;;;;;;5114781;27;20486;-43
2022/07/24 06:05:22;;;;;;;7.18;5.93;;;;;;;;;;5116154;27;20130;-48
2022/07/24 06:07:47;;;;;;;8.30;6.32;;;;;;;;;;5114334;27;20126;-43
2022/07/24 06:10:12;;;;;;;9.70;5.25;;;;;;;;;;5118763;27;20028;-46
2022/07/24 06:12:38;;;;;;;13.45;5.40;;;;;;;;;;5111421;27;20525;-45
2022/07/24 06:15:04;;;;;;;6.22;5.47;;;;;;;;;;5117045;27;20122;-45
2022/07/24 06:17:29;;;;;;;6.45;5.85;;;;;;;;;;5113818;27;20035;-43
2022/07/24 06:19:54;;;;;;;5.30;4.78;;;;;;;;;;5112264;27;20043;-43
2022/07/24 06:22:20;;;;;;;6.70;5.25;;;;;;;;;;5115752;27;20094;-44
2022/07/24 06:24:45;;;;;;;6.57;5.72;;;;;;;;;;5115090;27;20079;-46
2022/07/24 06:27:10;;;;;;;16.15;5.43;;;;;;;;;;5114535;27;20047;-44
2022/07/24 06:29:36;;;;;;;5.43;4.93;;;;;;;;;;5115487;27;20043;-44
2022/07/24 06:32:01;;;;;;;7.00;5.38;;;;;;;;;;5115323;28;20055;-42
2022/07/24 06:34:26;;;;;;;7.30;5.25;;;;;;;;;;5112304;27;20093;-42
2022/07/24 06:36:52;;;;;;;6.38;5.78;;;;;;;;;;5113077;28;20066;-43
2022/07/24 06:39:17;;;;;;;5.22;4.65;;;;;;;;;;5116383;27;20039;-43
2022/07/24 06:41:43;;;;;;;6.50;5.15;;;;;;;;;;5117146;27;20077;-47
2022/07/24 06:44:08;;;;;;;8.25;4.78;;;;;;;;;;5114769;28;20048;-43
2022/07/24 06:46:34;;;;;;;5.90;5.28;;;;;;;;;;5114253;27;20038;-46
2022/07/24 06:48:59;;;;;;;6.32;4.63;;;;;;;;;;5111603;27;20454;-47
2022/07/24 06:51:24;;;;;;;6.40;5.40;;;;;;;;;;5116105;27;20047;-44
2022/07/24 06:53:50;;;;;;;6.82;6.18;;;;;;;;;;5111582;27;20090;-48
2022/07/24 06:56:15;;;;;;;5.95;4.80;;;;;;;;;;5113350;27;20046;-46
2022/07/24 06:58:41;;;;;;;4.88;4.43;;;;;;;;;;5113830;27;20043;-44
2022/07/24 07:01:06;;;;;;;5.10;4.63;;;;;;;;;;5116928;27;20039;-48
2022/07/24 07:03:31;;;;;;;10.02;6.20;;;;;;;;;;5112594;27;20454;-47
2022/07/24 07:05:56;;;;;;;6.20;5.60;;;;;;;;;;5113027;27;20050;-46
2022/07/24 07:08:22;;;;;;;11.63;5.50;;;;;;;;;;5116248;27;20049;-44
2022/07/24 07:10:47;;;;;;;9.13;5.15;;;;;;;;;;5110718;27;20515;-46
2022/07/24 07:13:12;;;;;;;11.25;6.35;;;;;;;;;;5110851;27;20043;-45
2022/07/24 07:15:38;;;;;;;7.45;5.35;;;;;;;;;;5114700;27;20046;-44
2022/07/24 07:18:03;;;;;;;4.18;3.78;;;;;;;;;;5109905;27;20086;-47
2022/07/24 07:20:28;;;;;;;5.97;5.00;;;;;;;;;;5114280;27;20514;-43
2022/07/24 07:22:54;;;;;;;4.20;3.80;;;;;;;;;;5112000;28;20051;-47
2022/07/24 07:25:19;;;;;;;7.25;4.80;;;;;;;;;;5114168;27;20640;-44
2022/07/24 07:27:44;;;;;;;7.38;6.55;;;;;;;;;;5112423;27;20051;-47
2022/07/24 07:30:11;;;;;;;14.80;8.60;;;;;;;;;;5110318;27;20047;-47
2022/07/24 07:32:37;;;;;;;9.75;7.43;;;;;;;;;;5110930;27;20042;-42
2022/07/24 07:35:03;;;;;;;5.78;5.28;;;;;;;;;;5108663;27;20464;-46
2022/07/24 07:37:28;;;;;;;19.33;5.25;;;;;;;;;;5112632;27;20047;-43
2022/07/24 07:39:54;;;;;;;4.75;4.35;;;;;;;;;;5115409;27;20040;-44
2022/07/24 07:42:19;;;;;;;5.25;4.75;;;;;;;;;;5110971;27;20097;-46
2022/07/24 07:44:44;;;;;;;10.80;9.73;;;;;;;;;;5108122;28;20059;-44
2022/07/24 07:47:09;;;;;;;7.97;7.18;;;;;;;;;;5104513;27;20047;-49
2022/07/24 07:49:35;;;;;;;6.18;5.43;;;;;;;;;;5113728;27;20071;-46
2022/07/24 07:52:01;;;;;;;9.85;5.38;;;;;;;;;;5106004;27;20433;-45
2022/07/24 07:54:26;;;;;;;13.30;6.32;;;;;;;;;;5112300;27;20550;-46
2022/07/24 07:56:52;;;;;;;5.13;3.92;;;;;;;;;;5109014;27;20108;-44
2022/07/24 07:59:17;;;;;;;8.40;7.35;;;;;;;;;;5106778;28;20461;-42
2022/07/24 08:01:42;;;;;;;6.00;4.97;;;;;;;;;;5115398;27;20024;-49
2022/07/24 08:04:07;;;;;;;8.30;4.78;;;;;;;;;;5118462;27;20466;-45
2022/07/24 08:06:33;;;;;;;5.90;4.53;;;;;;;;;;5113578;27;20075;-46
2022/07/24 08:08:58;;;;;;;4.68;4.28;;;;;;;;;;5116017;27;20039;-45
2022/07/24 08:11:23;;;;;;;9.93;5.00;;;;;;;;;;5112713;27;20511;-49
2022/07/24 08:13:49;;;;;;;6.93;4.35;;;;;;;;;;5111263;28;20502;-47
2022/07/24 08:16:14;;;;;;;10.95;5.32;;;;;;;;;;5111206;27;20632;-48
2022/07/24 08:18:39;;;;;;;4.47;3.67;;;;;;;;;;5112736;27;20032;-46
2022/07/24 08:21:05;;;;;;;3.25;2.95;;;;;;;;;;5115468;27;20518;-45
2022/07/24 08:23:30;;;;;;;4.55;4.07;;;;;;;;;;5114473;27;20097;-44
2022/07/24 08:25:56;;;;;;;3.13;2.67;;;;;;;;;;5115848;27;20043;-46
2022/07/24 08:28:22;;;;;;;5.30;3.65;;;;;;;;;;5115203;27;20035;-45
2022/07/24 08:30:48;;;;;;;5.75;4.22;;;;;;;;;;5115571;27;20462;-45
2022/07/24 08:33:13;;;;;;;6.05;2.95;;;;;;;;;;5113100;28;20031;-45
2022/07/24 08:35:39;;;;;;;6.45;3.05;;;;;;;;;;5113823;27;20487;-46
2022/07/24 08:38:05;;;;;;;3.67;3.13;;;;;;;;;;5119707;27;20672;-47
2022/07/24 08:40:32;;;;;;;7.60;2.90;;;;;;;;;;5113165;27;20067;-44
2022/07/24 08:42:57;;;;;;;4.30;2.35;;;;;;;;;;5116260;27;20653;-43
2022/07/24 08:45:23;;;;;;;8.25;3.65;;;;;;;;;;5113436;27;20047;-44
2022/07/24 08:47:50;;;;;;;4.00;2.08;;;;;;;;;;5117933;27;20721;-48
2022/07/24 08:50:15;;;;;;;2.30;1.88;;;;;;;;;;5111534;28;20191;-44
2022/07/24 08:52:41;;;;;;;2.60;1.90;;;;;;;;;;5114269;28;20126;-45
2022/07/24 08:55:07;;;;;;;4.38;3.63;;;;;;;;;;5114923;27;20050;-43
2022/07/24 08:57:32;;;;;;;3.33;3.03;;;;;;;;;;5112688;27;20505;-47
2022/07/24 08:59:59;;;;;;;3.28;1.70;;;;;;;;;;5114013;27;20036;-48
2022/07/24 09:02:24;;;;;;;5.68;3.22;;;;;;;;;;5115014;27;20422;-46
2022/07/24 09:04:57;;;;;;;4.93;3.47;;;;;;;;;;5109968;27;20051;-43
2022/07/24 09:07:27;;;;;;;5.47;2.75;;;;;;;;;;5115448;27;20050;-46
2022/07/24 09:10:03;;;;;;;3.25;2.13;;;;;;;;;;5108888;27;20117;-43
2022/07/24 09:12:33;;;;;;;2.03;1.80;;;;;;;;;;5112771;27;20043;-51
2022/07/24 09:14:59;;;;;;;4.13;2.43;;;;;;;;;;5114254;27;20046;-44
2022/07/24 09:17:24;;;;;;;2.72;2.22;;;;;;;;;;5110106;27;20065;-47
2022/07/24 09:19:49;;;;;;;2.45;2.17;;;;;;;;;;5114466;27;20050;-45
2022/07/24 09:22:41;;;;;;;2.63;2.42;;;;;;;;;;5113955;27;20499;-43
2022/07/24 09:25:11;;;;;;;2.20;1.77;;;;;;;;;;5108222;27;20062;-46
2022/07/24 09:27:37;;;;;;;;;;;;;;;;;;5116892;27;20502;-48
2022/07/24 09:30:03;;;;;;;2.63;1.60;;;;;;;;;;5111584;27;19915;-49
2022/07/24 09:32:29;;;;;;;4.10;2.78;;;;;;;;;;5113766;27;20138;-47
2022/07/24 09:34:54;;;;;;;4.65;2.20;;;;;;;;;;5104393;27;20614;-48
2022/07/24 09:37:20;;;;;;;3.67;2.85;;;;;;;;;;5104839;27;20036;-45
2022/07/24 09:39:46;;;;;;;2.58;1.88;;;;;;;;;;5109123;28;20130;-49
2022/07/24 09:42:11;;;;;;;3.30;2.58;;;;;;;;;;5114710;27;20070;-47
2022/07/24 09:44:37;;;;;;;3.60;1.95;;;;;;;;;;5110213;27;20043;-45
2022/07/24 09:47:04;;;;;;;3.45;3.15;;;;;;;;;;5106624;27;20047;-46
2022/07/24 09:49:30;;;;;;;15.13;4.20;;;;;;;;;;5115018;27;20027;-47
2022/07/24 09:52:04;;;;;;;4.13;3.65;;;;;;;;;;5106808;28;20097;-45
2022/07/24 09:54:31;;;;;;;4.15;3.00;;;;;;;;;;5107471;27;20044;-47
2022/07/24 09:57:14;;;;;;;8.60;3.22;;;;;;;;;;5110704;27;20077;-45
2022/07/24 09:59:40;;;;;;;3.00;2.60;;;;;;;;;;5110286;27;20040;-44
2022/07/24 10:02:07;;;;;;;2.45;1.60;;;;;;;;;;5111759;27;20108;-44
2022/07/24 10:04:34;;;;;;;3.42;2.70;;;;;;;;;;5107572;27;20495;-47
2022/07/24 10:07:01;;;;;;;2.90;2.00;;;;;;;;;;5109449;28;20059;-46
2022/07/24 10:09:27;;;;;;;5.35;3.38;;;;;;;;;;5092052;27;20137;-45
2022/07/24 10:11:53;;;;;;;2.00;1.73;;;;;;;;;;5113308;27;20039;-46
2022/07/24 10:14:18;;;;;;;2.08;1.75;;;;;;;;;;5108719;27;20558;-46
2022/07/24 10:16:47;;;;;;;1.77;1.33;;;;;;;;;;5110644;27;20040;-47
2022/07/24 10:19:14;;;;;;;2.65;1.52;;;;;;;;;;5107186;27;20063;-44
2022/07/24 10:21:42;;;;;;;8.73;3.88;;;;;;;;;;5111175;27;20057;-48
2022/07/24 10:24:08;;;;;;;2.40;1.80;;;;;;;;;;5110647;27;20039;-46
2022/07/24 10:26:37;;;;;;;4.63;2.40;;;;;;;;;;5107132;27;20097;-46
2022/07/24 10:29:10;;;;;;;2.50;2.22;;;;;;;;;;5111258;27;20054;-44
2022/07/24 10:31:55;;;;;;;1.98;1.77;;;;;;;;;;5112014;27;20043;-43
2022/07/24 10:34:46;;;;;;;5.45;2.25;;;;;;;;;;5111714;28;20121;-44
2022/07/24 10:37:16;;;;;;;2.83;2.50;;;;;;;;;;5111693;27;20028;-45
2022/07/24 10:39:54;;;;;;;4.55;3.30;;;;;;;;;;5107671;27;20039;-46
2022/07/24 10:42:19;;;;;;;2.50;1.38;;;;;;;;;;5110899;27;20048;-47
2022/07/24 10:44:44;;;;;;;3.05;2.00;;;;;;;;;;5108262;27;20043;-44
2022/07/24 10:47:15;;;;;;;2.60;2.40;;;;;;;;;;5109042;27;20047;-45
2022/07/24 10:49:41;;;;;;;2.97;2.25;;;;;;;;;;5111107;27;20043;-46
2022/07/24 10:52:08;;;;;;;1.90;1.45;;;;;;;;;;5109552;27;20035;-44
2022/07/24 10:54:33;;;;;;;4.03;2.28;;;;;;;;;;5102731;28;20042;-44
2022/07/24 10:56:59;;;;;;;8.77;4.10;;;;;;;;;;5109131;27;20047;-45
2022/07/24 10:59:35;;;;;;;2.47;1.90;;;;;;;;;;5108662;28;20065;-47
2022/07/24 11:02:19;;;;;;;5.97;3.15;;;;;;;;;;5108049;27;20047;-45
2022/07/24 11:04:44;;;;;;;22.67;3.70;;;;;;;;;;5108236;27;20055;-47
2022/07/24 11:07:12;;;;;;;2.75;1.95;;;;;;;;;;5106442;27;20039;-46
2022/07/24 11:10:12;;;;;;;11.95;2.45;;;;;;;;;;5107645;27;20040;-43
2022/07/24 11:12:44;;;;;;;3.03;2.40;;;;;;;;;;5017553;28;20054;-48
2022/07/24 11:17:53;;;;;;;3.55;1.90;;;;;;;;;;5108426;28;20156;-45
2022/07/24 11:20:19;;;;;;;2.83;2.35;;;;;;;;;;5107734;27;20122;-46
2022/07/24 11:22:49;;;;;;;4.18;2.00;;;;;;;;;;5110423;27;20123;-50
2022/07/24 11:25:24;;;;;;;1.90;1.25;;;;;;;;;;5105199;28;20518;-44
2022/07/24 11:27:49;;;;;;;2.75;2.42;;;;;;;;;;5106996;27;20047;-48
2022/07/24 11:30:15;;;;;;;3.83;2.67;;;;;;;;;;5108383;27;20054;-45
2022/07/24 11:32:41;;;;;;;4.20;2.45;;;;;;;;;;5108347;27;20047;-45
2022/07/24 11:35:08;;;;;;;4.38;1.90;;;;;;;;;;5106831;28;20043;-42
2022/07/24 11:37:34;;;;;;;3.55;2.67;;;;;;;;;;5109263;27;20048;-46
2022/07/24 11:39:59;;;;;;;4.13;2.15;;;;;;;;;;5106283;27;20596;-46
2022/07/24 11:42:24;;;;;;;2.65;2.13;;;;;;;;;;5107080;27;20106;-44
2022/07/24 11:44:50;;;;;;;2.92;2.08;;;;;;;;;;5105923;27;20051;-43
2022/07/24 11:47:17;;;;;;;2.55;2.35;;;;;;;;;;5103316;27;20571;-46
2022/07/24 11:49:42;;;;;;;2.00;1.50;;;;;;;;;;5107882;27;20069;-44
2022/07/24 11:52:12;;;;;;;3.97;2.63;;;;;;;;;;5107855;28;20051;-47
2022/07/24 11:54:39;;;;;;;3.65;2.70;;;;;;;;;;5108433;27;20126;-45
2022/07/24 11:57:05;;;;;;;4.93;3.35;;;;;;;;;;5107321;27;20082;-45
2022/07/24 11:59:32;;;;;;;2.92;2.22;;;;;;;;;;5106730;28;20032;-42
2022/07/24 12:02:04;;;;;;;4.25;3.00;;;;;;;;;;5109093;27;20069;-43
2022/07/24 12:04:30;;;;;;;2.53;2.22;;;;;;;;;;5108274;27;20046;-44
2022/07/24 12:06:56;;;;;;;18.67;3.03;;;;;;;;;;5108046;27;20039;-45
2022/07/24 12:09:21;;;;;;;9.55;2.53;;;;;;;;;;5112241;27;20485;-48
2022/07/24 12:11:46;;;;;;;2.47;2.00;;;;;;;;;;5112284;27;20103;-46
2022/07/24 12:14:18;;;;;;;8.18;2.10;;;;;;;;;;5109425;27;20035;-44
2022/07/24 12:16:44;;;;;;;3.92;1.40;;;;;;;;;;5113536;27;20491;-45
2022/07/24 12:19:17;;;;;;;1.83;1.45;;;;;;;;;;5112718;27;20039;-45
2022/07/24 12:21:43;;;;;;;3.83;2.63;;;;;;;;;;5112458;27;20073;-47
2022/07/24 12:24:09;;;;;;;3.60;2.85;;;;;;;;;;5110334;28;20130;-44
2022/07/24 12:26:47;;;;;;;2.45;1.75;;;;;;;;;;5112846;27;20188;-46
2022/07/24 12:29:12;;;;;;;2.85;2.53;;;;;;;;;;5116647;27;20058;-46
2022/07/24 12:31:37;;;;;;;3.88;2.35;;;;;;;;;;5110149;27;20047;-43
2022/07/24 12:34:06;;;;;;;4.20;2.10;;;;;;;;;;5108745;28;20043;-42
2022/07/24 12:36:31;;;;;;;2.92;2.35;;;;;;;;;;5110959;27;20069;-43
2022/07/24 12:38:57;;;;;;;2.83;1.95;;;;;;;;;;5110833;27;20043;-49
2022/07/24 12:41:26;;;;;;;3.50;2.83;;;;;;;;;;5113831;27;20495;-48
2022/07/24 12:43:53;;;;;;;2.25;1.83;;;;;;;;;;5110260;27;20063;-45
2022/07/24 12:46:20;;;;;;;2.33;1.90;;;;;;;;;;5113731;27;20126;-43
2022/07/24 12:49:04;;;;;;;2.22;1.10;;;;;;;;;;5114878;27;20046;-43
2022/07/24 12:51:48;;;;;;;3.58;2.15;;;;;;;;;;5112805;27;20048;-43
2022/07/24 12:54:16;;;;;;;4.32;3.20;;;;;;;;;;5112695;27;20047;-42
2022/07/24 12:56:42;;;;;;;2.25;2.00;;;;;;;;;;5112488;27;20052;-45
2022/07/24 12:59:07;;;;;;;1.42;1.17;;;;;;;;;;5115694;27;20409;-44
2022/07/24 13:01:49;;;;;;;3.17;1.60;;;;;;;;;;5116132;27;20039;-44
2022/07/24 13:04:16;;;;;;;5.30;1.77;;;;;;;;;;5114190;27;20480;-45
2022/07/24 13:06:42;;;;;;;3.10;2.03;;;;;;;;;;5113250;27;20054;-43
2022/07/24 13:09:09;;;;;;;6.35;2.97;;;;;;;;;;5112705;27;20176;-44
2022/07/24 13:11:38;;;;;;;4.38;2.05;;;;;;;;;;5113026;27;20106;-45
2022/07/24 13:14:03;;;;;;;2.08;1.40;;;;;;;;;;5108313;27;20086;-45
2022/07/24 13:16:30;;;;;;;3.50;2.30;;;;;;;;;;5114044;27;20048;-45
2022/07/24 13:18:55;;;;;;;2.53;1.98;;;;;;;;;;5113697;27;20069;-42
2022/07/24 13:21:21;;;;;;;4.13;2.70;;;;;;;;;;5109401;27;20507;-45
2022/07/24 13:23:46;;;;;;;4.28;3.45;;;;;;;;;;5110529;28;20048;-44
2022/07/24 13:26:13;;;;;;;2.97;1.80;;;;;;;;;;5115525;27;20051;-41
2022/07/24 13:28:38;;;;;;;4.20;1.55;;;;;;;;;;5110043;27;20043;-42
2022/07/24 13:31:04;;;;;;;2.33;1.48;;;;;;;;;;5088508;27;20501;-42
2022/07/24 13:33:31;;;;;;;6.18;2.08;;;;;;;;;;5112695;28;20047;-45
2022/07/24 13:35:57;;;;;;;3.33;2.35;;;;;;;;;;5118293;27;20283;-43
2022/07/24 13:38:22;;;;;;;2.13;1.50;;;;;;;;;;5112085;27;20527;-42
2022/07/24 13:40:48;;;;;;;3.25;1.88;;;;;;;;;;5115493;27;20054;-42
2022/07/24 13:43:13;;;;;;;1.88;1.27;;;;;;;;;;5117512;27;20569;-44
2022/07/24 13:45:38;;;;;;;7.22;1.85;;;;;;;;;;5114019;27;20658;-42
2022/07/24 13:48:04;;;;;;;4.82;2.08;;;;;;;;;;5112379;27;20043;-46
2022/07/24 13:50:30;;;;;;;3.35;2.58;;;;;;;;;;5114355;27;20046;-45
2022/07/24 13:52:56;;;;;;;2.85;1.70;;;;;;;;;;5105243;28;20058;-42
2022/07/24 13:55:21;;;;;;;3.30;2.42;;;;;;;;;;5116125;27;20048;-47
2022/07/24 13:57:46;;;;;;;5.60;2.67;;;;;;;;;;5113348;27;20422;-42
2022/07/24 14:00:12;;;;;;;7.25;2.28;;;;;;;;;;5110958;27;20422;-43
2022/07/24 14:02:37;;;;;;;2.22;2.03;;;;;;;;;;5111872;27;20551;-41
2022/07/24 14:05:03;;;;;;;5.32;2.53;;;;;;;;;;5112584;28;20059;-43
2022/07/24 14:07:28;;;;;;;4.38;2.30;;;;;;;;;;5112491;27;20043;-44
2022/07/24 14:09:54;;;;;;;1.92;1.42;;;;;;;;;;5111986;28;20032;-41
2022/07/24 14:12:20;;;;;;;3.25;2.15;;;;;;;;;;5113289;28;20594;-43
2022/07/24 14:14:46;;;;;;;3.88;2.63;;;;;;;;;;5111999;27;20423;-42
2022/07/24 14:17:12;;;;;;;4.18;2.85;;;;;;;;;;5115562;27;20114;-42
2022/07/24 14:19:38;;;;;;;3.22;2.10;;;;;;;;;;5112115;27;20142;-44
2022/07/24 14:22:04;;;;;;;3.15;2.65;;;;;;;;;;5095290;27;20047;-45
2022/07/24 14:24:30;;;;;;;2.67;1.75;;;;;;;;;;5113631;27;20047;-44
2022/07/24 14:26:55;;;;;;;2.85;2.17;;;;;;;;;;5112196;28;20537;-44
2022/07/24 14:29:20;;;;;;;1.88;1.33;;;;;;;;;;5114724;27;20031;-42
2022/07/24 14:31:46;;;;;;;1.60;0.98;;;;;;;;;;5111382;27;20201;-43
2022/07/24 14:34:12;;;;;;;2.08;1.83;;;;;;;;;;5112083;27;20086;-44
2022/07/24 14:36:37;;;;;;;3.58;1.65;;;;;;;;;;5109328;27;20044;-46
2022/07/24 14:39:03;;;;;;;2.15;1.63;;;;;;;;;;5110319;27;20118;-45
2022/07/24 14:41:28;;;;;;;3.17;2.17;;;;;;;;;;5109367;27;20356;-42